createdAt,value
2023-02-25T00:00:37.081Z,989.95
2023-02-25T00:01:37.066Z,989.98
2023-02-25T00:02:37.068Z,989.96
2023-02-25T00:03:37.091Z,989.96
2023-02-25T00:04:37.041Z,989.96
2023-02-25T00:05:37.010Z,989.92
2023-02-25T00:06:37.003Z,989.94
2023-02-25T00:07:36.988Z,989.96
2023-02-25T00:08:36.990Z,989.97
2023-02-25T00:09:36.979Z,989.95
2023-02-25T00:10:36.956Z,989.95
2023-02-25T00:11:36.937Z,989.97
2023-02-25T00:12:36.940Z,989.98
2023-02-25T00:13:36.916Z,989.99
2023-02-25T00:14:36.936Z,989.95
2023-02-25T00:15:36.885Z,989.98
2023-02-25T00:16:36.891Z,989.95
2023-02-25T00:17:36.862Z,989.91
2023-02-25T00:18:36.852Z,989.95
2023-02-25T00:19:36.896Z,989.94
2023-02-25T00:20:36.838Z,989.91
2023-02-25T00:21:36.804Z,989.96
2023-02-25T00:22:36.818Z,989.94
2023-02-25T00:23:36.798Z,989.96
2023-02-25T00:24:36.774Z,990.06
2023-02-25T00:25:36.773Z,990.02
2023-02-25T00:26:36.747Z,990.05
2023-02-25T00:27:36.743Z,990.03
2023-02-25T00:28:36.751Z,990.08
2023-02-25T00:29:36.715Z,990.08
2023-02-25T00:30:36.882Z,990.07
2023-02-25T00:31:36.868Z,990.06
2023-02-25T00:32:36.714Z,990.08
2023-02-25T00:33:36.668Z,990.10
2023-02-25T00:34:36.649Z,990.08
2023-02-25T00:35:36.678Z,990.08
2023-02-25T00:36:36.660Z,990.07
2023-02-25T00:37:36.608Z,990.08
2023-02-25T00:38:36.598Z,990.10
2023-02-25T00:39:36.644Z,990.10
2023-02-25T00:40:36.587Z,990.08
2023-02-25T00:41:36.560Z,990.09
2023-02-25T00:42:36.544Z,990.10
2023-02-25T00:43:36.532Z,990.11
2023-02-25T00:44:36.544Z,990.10
2023-02-25T00:45:36.523Z,990.12
2023-02-25T00:46:36.617Z,990.10
2023-02-25T00:47:36.479Z,990.09
2023-02-25T00:48:36.481Z,990.11
2023-02-25T00:49:36.470Z,990.09
2023-02-25T00:50:36.457Z,990.09
2023-02-25T00:51:36.427Z,990.14
2023-02-25T00:52:36.416Z,990.21
2023-02-25T00:53:36.400Z,990.17
2023-02-25T00:54:36.407Z,990.24
2023-02-25T00:55:36.400Z,990.25
2023-02-25T00:56:36.367Z,990.20
2023-02-25T00:57:36.356Z,990.26
2023-02-25T00:58:36.352Z,990.24
2023-02-25T00:59:36.339Z,990.28
2023-02-25T01:00:50.152Z,990.25
2023-02-25T01:01:37.304Z,990.25
2023-02-25T01:02:36.371Z,990.29
2023-02-25T01:03:36.276Z,990.28
2023-02-25T01:04:36.262Z,990.22
2023-02-25T01:05:36.268Z,990.26
2023-02-25T01:06:36.237Z,990.19
2023-02-25T01:07:36.216Z,990.22
2023-02-25T01:08:36.209Z,990.26
2023-02-25T01:09:36.199Z,990.20
2023-02-25T01:10:36.203Z,990.22
2023-02-25T01:11:36.166Z,990.23
2023-02-25T01:12:36.155Z,990.16
2023-02-25T01:13:36.204Z,990.15
2023-02-25T01:14:36.134Z,990.18
2023-02-25T01:15:36.129Z,990.22
2023-02-25T01:16:36.345Z,990.21
2023-02-25T01:17:36.093Z,990.18
2023-02-25T01:18:36.079Z,990.17
2023-02-25T01:19:36.065Z,990.21
2023-02-25T01:20:36.053Z,990.15
2023-02-25T01:21:36.071Z,990.24
2023-02-25T01:22:36.031Z,990.20
2023-02-25T01:23:36.013Z,990.21
2023-02-25T01:24:36.009Z,990.19
2023-02-25T01:25:35.989Z,990.24
2023-02-25T01:26:35.995Z,990.22
2023-02-25T01:27:35.965Z,990.26
2023-02-25T01:28:35.947Z,990.23
2023-02-25T01:29:35.940Z,990.26
2023-02-25T01:30:35.976Z,990.23
2023-02-25T01:31:36.084Z,990.18
2023-02-25T01:32:36.082Z,990.22
2023-02-25T01:33:35.895Z,990.26
2023-02-25T01:34:35.884Z,990.26
2023-02-25T01:35:35.865Z,990.33
2023-02-25T01:36:35.886Z,990.35
2023-02-25T01:37:35.832Z,990.29
2023-02-25T01:38:35.825Z,990.28
2023-02-25T01:39:35.812Z,990.31
2023-02-25T01:40:35.801Z,990.28
2023-02-25T01:41:35.808Z,990.30
2023-02-25T01:42:35.776Z,990.30
2023-02-25T01:43:35.758Z,990.25
2023-02-25T01:44:35.748Z,990.30
2023-02-25T01:45:35.749Z,990.29
2023-02-25T01:46:35.833Z,990.35
2023-02-25T01:47:35.717Z,990.27
2023-02-25T01:48:35.719Z,990.22
2023-02-25T01:49:35.695Z,990.29
2023-02-25T01:50:35.682Z,990.29
2023-02-25T01:51:35.681Z,990.24
2023-02-25T01:52:35.657Z,990.18
2023-02-25T01:53:35.635Z,990.22
2023-02-25T01:54:35.628Z,990.24
2023-02-25T01:55:35.608Z,990.23
2023-02-25T01:56:35.611Z,990.25
2023-02-25T01:57:35.596Z,990.24
2023-02-25T01:58:35.604Z,990.26
2023-02-25T01:59:35.567Z,990.26
2023-02-25T02:00:35.611Z,990.25
2023-02-25T02:01:35.554Z,990.28
2023-02-25T02:02:35.577Z,990.25
2023-02-25T02:03:35.509Z,990.27
2023-02-25T02:04:35.521Z,990.28
2023-02-25T02:05:35.500Z,990.21
2023-02-25T02:06:35.489Z,990.19
2023-02-25T02:07:35.468Z,990.18
2023-02-25T02:08:35.478Z,990.21
2023-02-25T02:09:35.431Z,990.22
2023-02-25T02:10:35.421Z,990.21
2023-02-25T02:11:35.421Z,990.20
2023-02-25T02:12:35.406Z,990.24
2023-02-25T02:13:35.386Z,990.21
2023-02-25T02:14:35.369Z,990.30
2023-02-25T02:15:35.364Z,990.28
2023-02-25T02:16:35.450Z,990.27
2023-02-25T02:17:35.328Z,990.21
2023-02-25T02:18:35.350Z,990.20
2023-02-25T02:19:35.307Z,990.25
2023-02-25T02:20:35.318Z,990.23
2023-02-25T02:21:35.296Z,990.27
2023-02-25T02:22:35.276Z,990.29
2023-02-25T02:23:35.248Z,990.27
2023-02-25T02:24:35.251Z,990.19
2023-02-25T02:25:35.227Z,990.21
2023-02-25T02:26:35.232Z,990.18
2023-02-25T02:27:35.200Z,990.15
2023-02-25T02:28:35.190Z,990.19
2023-02-25T02:29:35.175Z,990.22
2023-02-25T02:30:35.262Z,990.19
2023-02-25T02:31:35.191Z,990.24
2023-02-25T02:32:35.280Z,990.25
2023-02-25T02:33:35.131Z,990.20
2023-02-25T02:34:35.115Z,990.23
2023-02-25T02:35:35.099Z,990.25
2023-02-25T02:36:35.120Z,990.24
2023-02-25T02:37:35.092Z,990.28
2023-02-25T02:38:35.060Z,990.32
2023-02-25T02:39:35.058Z,990.36
2023-02-25T02:40:35.044Z,990.29
2023-02-25T02:41:35.022Z,990.24
2023-02-25T02:42:35.029Z,990.29
2023-02-25T02:43:34.996Z,990.35
2023-02-25T02:44:34.984Z,990.29
2023-02-25T02:45:35.026Z,990.32
2023-02-25T02:46:34.974Z,990.23
2023-02-25T02:47:34.975Z,990.21
2023-02-25T02:48:34.978Z,990.15
2023-02-25T02:49:34.919Z,990.15
2023-02-25T02:50:34.908Z,990.23
2023-02-25T02:51:34.888Z,990.23
2023-02-25T02:52:34.925Z,990.26
2023-02-25T02:53:34.884Z,990.37
2023-02-25T02:54:34.843Z,990.35
2023-02-25T02:55:34.878Z,990.32
2023-02-25T02:56:34.837Z,990.29
2023-02-25T02:57:34.840Z,990.27
2023-02-25T02:58:34.912Z,990.25
2023-02-25T02:59:34.842Z,990.25
2023-02-25T03:00:34.779Z,990.35
2023-02-25T03:01:34.899Z,990.30
2023-02-25T03:02:34.763Z,990.25
2023-02-25T03:03:34.760Z,990.32
2023-02-25T03:04:34.718Z,990.28
2023-02-25T03:05:34.715Z,990.33
2023-02-25T03:06:34.694Z,990.45
2023-02-25T03:07:34.696Z,990.33
2023-02-25T03:08:34.690Z,990.33
2023-02-25T03:09:34.665Z,990.40
2023-02-25T03:10:34.645Z,990.33
2023-02-25T03:11:34.629Z,990.31
2023-02-25T03:12:34.635Z,990.38
2023-02-25T03:13:34.604Z,990.52
2023-02-25T03:14:34.587Z,990.53
2023-02-25T03:15:34.574Z,990.59
2023-02-25T03:16:34.579Z,990.52
2023-02-25T03:17:34.581Z,990.60
2023-02-25T03:18:34.571Z,990.63
2023-02-25T03:19:34.532Z,990.61
2023-02-25T03:20:34.522Z,990.58
2023-02-25T03:21:34.503Z,990.64
2023-02-25T03:22:34.504Z,990.64
2023-02-25T03:23:34.476Z,990.64
2023-02-25T03:24:34.484Z,990.61
2023-02-25T03:25:34.463Z,990.65
2023-02-25T03:26:34.447Z,990.51
2023-02-25T03:27:34.682Z,990.57
2023-02-25T03:28:34.456Z,990.65
2023-02-25T03:29:34.450Z,990.65
2023-02-25T03:30:34.414Z,990.67
2023-02-25T03:31:34.473Z,990.69
2023-02-25T03:32:37.035Z,990.67
2023-02-25T03:33:34.415Z,990.68
2023-02-25T03:34:34.369Z,990.60
2023-02-25T03:35:34.330Z,990.63
2023-02-25T03:36:34.332Z,990.67
2023-02-25T03:37:34.302Z,990.69
2023-02-25T03:38:34.315Z,990.67
2023-02-25T03:39:34.276Z,990.61
2023-02-25T03:40:34.288Z,990.56
2023-02-25T03:41:34.254Z,990.58
2023-02-25T03:42:34.241Z,990.67
2023-02-25T03:43:34.245Z,990.52
2023-02-25T03:44:34.230Z,990.52
2023-02-25T03:45:34.207Z,990.47
2023-02-25T03:46:34.340Z,990.48
2023-02-25T03:47:34.179Z,990.49
2023-02-25T03:48:34.181Z,990.60
2023-02-25T03:49:34.155Z,990.57
2023-02-25T03:50:34.140Z,990.54
2023-02-25T03:51:34.131Z,990.49
2023-02-25T03:52:34.121Z,990.57
2023-02-25T03:53:35.292Z,990.62
2023-02-25T03:54:34.083Z,990.54
2023-02-25T03:55:34.079Z,990.54
2023-02-25T03:56:34.077Z,990.55
2023-02-25T03:57:34.051Z,990.54
2023-02-25T03:58:34.067Z,990.64
2023-02-25T03:59:34.024Z,990.60
2023-02-25T04:00:34.005Z,990.63
2023-02-25T04:01:33.999Z,990.63
2023-02-25T04:02:34.031Z,990.62
2023-02-25T04:03:33.995Z,990.58
2023-02-25T04:04:34.093Z,990.67
2023-02-25T04:05:33.948Z,990.65
2023-02-25T04:06:33.936Z,990.68
2023-02-25T04:07:33.916Z,990.62
2023-02-25T04:08:33.922Z,990.66
2023-02-25T04:09:33.895Z,990.62
2023-02-25T04:10:33.881Z,990.62
2023-02-25T04:11:33.865Z,990.66
2023-02-25T04:12:33.876Z,990.70
2023-02-25T04:13:33.863Z,990.68
2023-02-25T04:14:33.831Z,990.68
2023-02-25T04:15:33.816Z,990.74
2023-02-25T04:16:33.806Z,990.72
2023-02-25T04:17:33.796Z,990.74
2023-02-25T04:18:33.797Z,990.75
2023-02-25T04:19:33.765Z,990.78
2023-02-25T04:20:33.752Z,990.73
2023-02-25T04:21:33.736Z,990.71
2023-02-25T04:22:33.729Z,990.78
2023-02-25T04:23:33.729Z,990.76
2023-02-25T04:24:33.698Z,990.74
2023-02-25T04:25:33.692Z,990.76
2023-02-25T04:26:33.674Z,990.77
2023-02-25T04:27:33.663Z,990.79
2023-02-25T04:28:33.680Z,990.79
2023-02-25T04:29:33.641Z,990.74
2023-02-25T04:30:34.479Z,990.79
2023-02-25T04:31:33.735Z,990.74
2023-02-25T04:32:33.656Z,990.76
2023-02-25T04:33:33.606Z,990.78
2023-02-25T04:34:33.577Z,990.84
2023-02-25T04:35:33.559Z,990.84
2023-02-25T04:36:33.561Z,990.81
2023-02-25T04:37:33.544Z,990.78
2023-02-25T04:38:33.540Z,990.80
2023-02-25T04:39:33.516Z,990.84
2023-02-25T04:40:33.498Z,990.83
2023-02-25T04:41:33.489Z,990.81
2023-02-25T04:42:33.475Z,990.76
2023-02-25T04:43:33.479Z,990.80
2023-02-25T04:44:33.466Z,990.82
2023-02-25T04:45:33.437Z,990.82
2023-02-25T04:46:33.472Z,990.86
2023-02-25T04:47:33.408Z,990.83
2023-02-25T04:48:33.415Z,990.88
2023-02-25T04:49:33.391Z,990.81
2023-02-25T04:50:33.375Z,990.82
2023-02-25T04:51:33.363Z,990.74
2023-02-25T04:52:33.362Z,990.79
2023-02-25T04:53:33.352Z,990.78
2023-02-25T04:54:33.321Z,990.85
2023-02-25T04:55:33.307Z,990.84
2023-02-25T04:56:33.298Z,990.82
2023-02-25T04:57:33.302Z,990.88
2023-02-25T04:58:33.286Z,990.82
2023-02-25T04:59:33.254Z,990.84
2023-02-25T05:00:33.266Z,990.86
2023-02-25T05:01:33.268Z,990.86
2023-02-25T05:02:33.224Z,990.87
2023-02-25T05:03:33.231Z,990.90
2023-02-25T05:04:33.218Z,990.90
2023-02-25T05:05:33.181Z,990.87
2023-02-25T05:06:33.168Z,990.91
2023-02-25T05:07:33.158Z,990.89
2023-02-25T05:08:33.165Z,990.93
2023-02-25T05:09:33.131Z,990.97
2023-02-25T05:10:33.131Z,990.95
2023-02-25T05:11:33.113Z,990.95
2023-02-25T05:12:33.097Z,990.96
2023-02-25T05:13:33.100Z,990.98
2023-02-25T05:14:33.217Z,990.95
2023-02-25T05:15:33.059Z,991.00
2023-02-25T05:16:33.104Z,990.91
2023-02-25T05:17:33.059Z,990.91
2023-02-25T05:18:33.049Z,990.94
2023-02-25T05:19:33.004Z,990.91
2023-02-25T05:20:33.039Z,990.97
2023-02-25T05:21:32.977Z,990.95
2023-02-25T05:22:32.978Z,990.97
2023-02-25T05:23:32.950Z,990.96
2023-02-25T05:24:32.962Z,990.94
2023-02-25T05:25:32.927Z,990.97
2023-02-25T05:26:32.913Z,991.00
2023-02-25T05:27:32.900Z,991.02
2023-02-25T05:28:32.883Z,991.02
2023-02-25T05:29:32.974Z,991.02
2023-02-25T05:30:32.859Z,991.03
2023-02-25T05:31:33.006Z,991.05
2023-02-25T05:32:32.995Z,991.00
2023-02-25T05:33:32.828Z,991.03
2023-02-25T05:34:32.823Z,991.07
2023-02-25T05:35:32.798Z,990.97
2023-02-25T05:36:32.802Z,991.04
2023-02-25T05:37:32.768Z,991.04
2023-02-25T05:38:32.762Z,991.08
2023-02-25T05:39:32.759Z,991.04
2023-02-25T05:40:32.730Z,990.99
2023-02-25T05:41:32.724Z,991.02
2023-02-25T05:42:32.703Z,990.97
2023-02-25T05:43:32.693Z,990.89
2023-02-25T05:44:32.699Z,990.93
2023-02-25T05:45:32.668Z,990.89
2023-02-25T05:46:32.687Z,990.93
2023-02-25T05:47:32.643Z,990.93
2023-02-25T05:48:32.655Z,990.85
2023-02-25T05:49:32.629Z,990.82
2023-02-25T05:50:32.597Z,990.84
2023-02-25T05:51:32.592Z,990.80
2023-02-25T05:52:32.577Z,990.90
2023-02-25T05:53:32.566Z,990.88
2023-02-25T05:54:32.563Z,990.86
2023-02-25T05:55:32.534Z,990.84
2023-02-25T05:56:32.573Z,990.85
2023-02-25T05:57:32.519Z,990.91
2023-02-25T05:58:32.493Z,990.91
2023-02-25T05:59:32.521Z,990.92
2023-02-25T06:00:32.476Z,990.90
2023-02-25T06:01:32.462Z,990.90
2023-02-25T06:02:32.445Z,990.97
2023-02-25T06:03:32.530Z,990.93
2023-02-25T06:04:32.471Z,990.98
2023-02-25T06:05:32.409Z,991.01
2023-02-25T06:06:32.405Z,991.01
2023-02-25T06:07:32.386Z,990.99
2023-02-25T06:08:32.368Z,990.99
2023-02-25T06:09:32.375Z,991.02
2023-02-25T06:10:32.346Z,991.05
2023-02-25T06:11:32.329Z,991.03
2023-02-25T06:12:32.321Z,991.02
2023-02-25T06:13:32.312Z,991.02
2023-02-25T06:14:32.306Z,991.05
2023-02-25T06:15:32.279Z,990.97
2023-02-25T06:16:32.833Z,991.03
2023-02-25T06:17:32.256Z,991.01
2023-02-25T06:18:32.241Z,991.07
2023-02-25T06:19:32.245Z,991.10
2023-02-25T06:20:32.238Z,991.04
2023-02-25T06:21:32.202Z,991.04
2023-02-25T06:22:32.192Z,991.00
2023-02-25T06:23:32.207Z,991.11
2023-02-25T06:24:32.184Z,991.08
2023-02-25T06:25:32.179Z,991.08
2023-02-25T06:26:32.133Z,991.08
2023-02-25T06:27:32.122Z,991.11
2023-02-25T06:28:32.106Z,991.17
2023-02-25T06:29:32.114Z,991.13
2023-02-25T06:30:32.162Z,991.13
2023-02-25T06:31:32.099Z,991.15
2023-02-25T06:32:32.271Z,991.12
2023-02-25T06:33:32.046Z,991.13
2023-02-25T06:34:32.042Z,991.16
2023-02-25T06:35:32.032Z,991.16
2023-02-25T06:36:32.035Z,991.18
2023-02-25T06:37:32.012Z,991.19
2023-02-25T06:38:31.984Z,991.22
2023-02-25T06:39:31.981Z,991.23
2023-02-25T06:40:31.959Z,991.24
2023-02-25T06:41:31.954Z,991.20
2023-02-25T06:42:31.932Z,991.29
2023-02-25T06:43:31.930Z,991.24
2023-02-25T06:44:31.921Z,991.38
2023-02-25T06:45:31.885Z,991.27
2023-02-25T06:46:31.948Z,991.28
2023-02-25T06:47:31.870Z,991.32
2023-02-25T06:48:31.859Z,991.42
2023-02-25T06:49:31.857Z,991.35
2023-02-25T06:50:31.828Z,991.44
2023-02-25T06:51:31.811Z,991.42
2023-02-25T06:52:31.821Z,991.41
2023-02-25T06:53:31.791Z,991.44
2023-02-25T06:54:31.794Z,991.39
2023-02-25T06:55:31.764Z,991.40
2023-02-25T06:56:31.749Z,991.46
2023-02-25T06:57:31.779Z,991.35
2023-02-25T06:58:31.729Z,991.38
2023-02-25T06:59:31.753Z,991.49
2023-02-25T07:00:31.703Z,991.42
2023-02-25T07:01:31.767Z,991.38
2023-02-25T07:02:31.674Z,991.49
2023-02-25T07:03:31.708Z,991.49
2023-02-25T07:04:31.767Z,991.46
2023-02-25T07:05:31.649Z,991.48
2023-02-25T07:06:31.625Z,991.45
2023-02-25T07:07:31.630Z,991.46
2023-02-25T07:08:31.623Z,991.53
2023-02-25T07:09:31.585Z,991.47
2023-02-25T07:10:31.579Z,991.48
2023-02-25T07:11:31.562Z,991.50
2023-02-25T07:12:31.540Z,991.54
2023-02-25T07:13:31.526Z,991.45
2023-02-25T07:14:31.520Z,991.55
2023-02-25T07:15:31.528Z,991.56
2023-02-25T07:16:31.495Z,991.45
2023-02-25T07:17:31.469Z,991.56
2023-02-25T07:18:31.460Z,991.47
2023-02-25T07:19:31.450Z,991.56
2023-02-25T07:20:31.457Z,991.53
2023-02-25T07:21:31.425Z,991.51
2023-02-25T07:22:31.426Z,991.53
2023-02-25T07:23:31.401Z,991.54
2023-02-25T07:24:31.412Z,991.48
2023-02-25T07:25:31.421Z,991.56
2023-02-25T07:26:31.369Z,991.52
2023-02-25T07:27:31.341Z,991.56
2023-02-25T07:28:31.341Z,991.52
2023-02-25T07:29:31.318Z,991.52
2023-02-25T07:30:31.323Z,991.51
2023-02-25T07:31:31.498Z,991.53
2023-02-25T07:32:31.513Z,991.56
2023-02-25T07:33:31.269Z,991.57
2023-02-25T07:34:31.276Z,991.56
2023-02-25T07:35:31.269Z,991.62
2023-02-25T07:36:31.227Z,991.59
2023-02-25T07:37:31.221Z,991.62
2023-02-25T07:38:31.206Z,991.63
2023-02-25T07:39:31.203Z,991.63
2023-02-25T07:40:31.218Z,991.66
2023-02-25T07:41:31.169Z,991.69
2023-02-25T07:42:31.150Z,991.71
2023-02-25T07:43:31.141Z,991.66
2023-02-25T07:44:31.134Z,991.62
2023-02-25T07:45:31.133Z,991.62
2023-02-25T07:46:31.236Z,991.63
2023-02-25T07:47:31.092Z,991.64
2023-02-25T07:48:31.076Z,991.62
2023-02-25T07:49:31.064Z,991.61
2023-02-25T07:50:31.068Z,991.69
2023-02-25T07:51:31.040Z,991.70
2023-02-25T07:52:31.026Z,991.74
2023-02-25T07:53:31.104Z,991.75
2023-02-25T07:54:31.027Z,991.70
2023-02-25T07:55:30.999Z,991.74
2023-02-25T07:56:31.001Z,991.76
2023-02-25T07:57:30.958Z,991.75
2023-02-25T07:58:31.003Z,991.77
2023-02-25T07:59:30.935Z,991.82
2023-02-25T08:00:30.961Z,991.82
2023-02-25T08:01:30.915Z,991.84
2023-02-25T08:02:30.927Z,991.81
2023-02-25T08:03:30.889Z,991.83
2023-02-25T08:04:30.985Z,991.86
2023-02-25T08:05:30.874Z,991.97
2023-02-25T08:06:30.841Z,991.91
2023-02-25T08:07:30.837Z,991.89
2023-02-25T08:08:30.819Z,991.88
2023-02-25T08:09:30.800Z,991.87
2023-02-25T08:10:30.808Z,991.84
2023-02-25T08:11:30.780Z,991.87
2023-02-25T08:12:30.792Z,991.88
2023-02-25T08:13:30.750Z,991.84
2023-02-25T08:14:30.739Z,991.81
2023-02-25T08:15:30.744Z,991.85
2023-02-25T08:16:30.725Z,991.84
2023-02-25T08:17:30.710Z,991.82
2023-02-25T08:18:30.691Z,991.82
2023-02-25T08:19:30.674Z,991.83
2023-02-25T08:20:30.683Z,991.86
2023-02-25T08:21:30.666Z,991.85
2023-02-25T08:22:30.638Z,991.87
2023-02-25T08:23:30.640Z,991.90
2023-02-25T08:24:30.608Z,991.86
2023-02-25T08:25:30.612Z,991.91
2023-02-25T08:26:30.582Z,991.80
2023-02-25T08:27:30.575Z,991.90
2023-02-25T08:28:33.837Z,991.83
2023-02-25T08:29:30.551Z,991.93
2023-02-25T08:30:30.652Z,991.88
2023-02-25T08:31:30.683Z,991.89
2023-02-25T08:32:30.630Z,991.90
2023-02-25T08:33:30.495Z,991.85
2023-02-25T08:34:30.488Z,991.86
2023-02-25T08:35:30.483Z,991.86
2023-02-25T08:36:30.513Z,991.89
2023-02-25T08:37:30.446Z,991.83
2023-02-25T08:38:30.429Z,991.88
2023-02-25T08:39:30.418Z,991.78
2023-02-25T08:40:35.665Z,991.78
2023-02-25T08:41:31.167Z,991.80
2023-02-25T08:42:30.377Z,991.81
2023-02-25T08:43:30.370Z,991.87
2023-02-25T08:44:30.371Z,991.85
2023-02-25T08:45:30.342Z,991.84
2023-02-25T08:46:30.402Z,991.81
2023-02-25T08:47:30.318Z,991.84
2023-02-25T08:48:30.373Z,991.88
2023-02-25T08:49:30.301Z,991.89
2023-02-25T08:50:30.290Z,991.93
2023-02-25T08:51:30.274Z,991.88
2023-02-25T08:52:30.251Z,991.87
2023-02-25T08:53:30.236Z,991.92
2023-02-25T08:54:30.230Z,991.88
2023-02-25T08:55:30.212Z,991.82
2023-02-25T08:56:30.214Z,991.84
2023-02-25T08:57:30.190Z,991.90
2023-02-25T08:58:30.174Z,991.89
2023-02-25T08:59:30.229Z,991.92
2023-02-25T09:00:30.240Z,991.95
2023-02-25T09:01:30.148Z,991.94
2023-02-25T09:02:30.138Z,991.96
2023-02-25T09:03:30.111Z,991.92
2023-02-25T09:04:30.099Z,991.94
2023-02-25T09:05:30.099Z,991.99
2023-02-25T09:06:30.089Z,992.01
2023-02-25T09:07:30.055Z,992.00
2023-02-25T09:08:30.039Z,992.01
2023-02-25T09:09:30.027Z,992.08
2023-02-25T09:10:38.619Z,992.08
2023-02-25T09:11:30.020Z,992.08
2023-02-25T09:12:29.987Z,992.12
2023-02-25T09:13:29.977Z,992.11
2023-02-25T09:14:29.963Z,992.07
2023-02-25T09:15:29.955Z,992.04
2023-02-25T09:16:30.060Z,992.01
2023-02-25T09:17:29.927Z,992.14
2023-02-25T09:18:29.916Z,992.07
2023-02-25T09:19:29.898Z,992.07
2023-02-25T09:20:29.895Z,992.11
2023-02-25T09:21:29.895Z,992.08
2023-02-25T09:22:29.858Z,992.11
2023-02-25T09:23:29.856Z,992.10
2023-02-25T09:24:29.838Z,992.07
2023-02-25T09:25:29.827Z,992.11
2023-02-25T09:26:29.837Z,992.08
2023-02-25T09:27:29.804Z,992.07
2023-02-25T09:28:29.790Z,992.06
2023-02-25T09:29:29.780Z,992.05
2023-02-25T09:30:29.759Z,992.10
2023-02-25T09:31:29.963Z,992.08
2023-02-25T09:32:29.880Z,992.10
2023-02-25T09:33:29.723Z,992.12
2023-02-25T09:34:29.709Z,992.09
2023-02-25T09:35:29.706Z,992.05
2023-02-25T09:36:29.694Z,992.10
2023-02-25T09:37:29.709Z,992.09
2023-02-25T09:38:29.665Z,992.06
2023-02-25T09:39:29.652Z,992.03
2023-02-25T09:40:29.631Z,992.07
2023-02-25T09:41:29.623Z,992.10
2023-02-25T09:42:29.624Z,992.03
2023-02-25T09:43:29.594Z,992.04
2023-02-25T09:44:29.590Z,991.99
2023-02-25T09:45:29.742Z,991.96
2023-02-25T09:46:29.559Z,991.93
2023-02-25T09:47:29.626Z,991.98
2023-02-25T09:48:29.576Z,991.87
2023-02-25T09:49:29.515Z,991.88
2023-02-25T09:50:29.504Z,991.91
2023-02-25T09:51:29.487Z,991.91
2023-02-25T09:52:29.496Z,991.86
2023-02-25T09:53:29.466Z,991.91
2023-02-25T09:54:29.448Z,991.90
2023-02-25T09:55:29.462Z,991.88
2023-02-25T09:56:29.424Z,991.94
2023-02-25T09:57:29.426Z,991.95
2023-02-25T09:58:29.400Z,992.02
2023-02-25T09:59:29.380Z,991.90
2023-02-25T10:00:29.372Z,991.82
2023-02-25T10:01:29.359Z,991.91
2023-02-25T10:02:29.500Z,991.85
2023-02-25T10:03:29.362Z,991.78
2023-02-25T10:04:29.358Z,991.80
2023-02-25T10:05:29.308Z,991.78
2023-02-25T10:06:29.331Z,991.79
2023-02-25T10:07:29.302Z,991.78
2023-02-25T10:08:29.270Z,991.80
2023-02-25T10:09:29.252Z,991.78
2023-02-25T10:10:29.245Z,991.76
2023-02-25T10:11:29.231Z,991.77
2023-02-25T10:12:29.235Z,991.86
2023-02-25T10:13:29.207Z,991.84
2023-02-25T10:14:29.189Z,991.81
2023-02-25T10:15:29.173Z,991.83
2023-02-25T10:16:29.228Z,991.87
2023-02-25T10:17:29.162Z,991.89
2023-02-25T10:18:29.170Z,991.90
2023-02-25T10:19:29.125Z,991.87
2023-02-25T10:20:29.130Z,991.88
2023-02-25T10:21:29.099Z,991.85
2023-02-25T10:22:29.104Z,991.87
2023-02-25T10:23:29.079Z,991.93
2023-02-25T10:24:29.059Z,991.87
2023-02-25T10:25:29.044Z,991.90
2023-02-25T10:26:29.038Z,991.92
2023-02-25T10:27:31.166Z,991.95
2023-02-25T10:28:29.013Z,991.92
2023-02-25T10:29:28.989Z,991.97
2023-02-25T10:30:29.071Z,991.92
2023-02-25T10:31:29.288Z,991.89
2023-02-25T10:32:29.057Z,991.91
2023-02-25T10:33:28.938Z,991.86
2023-02-25T10:34:28.950Z,991.88
2023-02-25T10:35:28.913Z,991.90
2023-02-25T10:36:28.924Z,991.92
2023-02-25T10:37:28.916Z,991.85
2023-02-25T10:38:28.871Z,991.81
2023-02-25T10:39:28.851Z,991.77
2023-02-25T10:40:28.841Z,991.94
2023-02-25T10:41:28.833Z,991.92
2023-02-25T10:42:28.833Z,992.01
2023-02-25T10:43:28.804Z,991.94
2023-02-25T10:44:28.794Z,991.87
2023-02-25T10:45:28.777Z,991.96
2023-02-25T10:46:28.803Z,991.93
2023-02-25T10:47:28.786Z,991.98
2023-02-25T10:48:28.742Z,992.02
2023-02-25T10:49:28.779Z,992.03
2023-02-25T10:50:44.557Z,992.06
2023-02-25T10:51:29.755Z,991.99
2023-02-25T10:52:28.708Z,992.03
2023-02-25T10:53:28.697Z,992.03
2023-02-25T10:54:28.660Z,991.93
2023-02-25T10:55:28.649Z,992.02
2023-02-25T10:56:28.635Z,991.96
2023-02-25T10:57:28.757Z,991.96
2023-02-25T10:58:28.629Z,991.96
2023-02-25T10:59:31.130Z,991.84
2023-02-25T11:00:28.588Z,991.94
2023-02-25T11:01:28.665Z,991.97
2023-02-25T11:02:28.710Z,991.97
2023-02-25T11:03:28.558Z,991.94
2023-02-25T11:04:28.606Z,991.89
2023-02-25T11:05:28.526Z,991.94
2023-02-25T11:06:28.509Z,991.97
2023-02-25T11:07:28.489Z,991.95
2023-02-25T11:08:28.549Z,991.93
2023-02-25T11:09:28.462Z,991.97
2023-02-25T11:10:28.447Z,991.92
2023-02-25T11:11:31.053Z,991.88
2023-02-25T11:12:28.423Z,991.86
2023-02-25T11:13:28.423Z,991.91
2023-02-25T11:14:28.394Z,991.93
2023-02-25T11:15:42.071Z,991.91
2023-02-25T11:16:28.451Z,991.92
2023-02-25T11:17:28.359Z,991.92
2023-02-25T11:18:28.380Z,991.87
2023-02-25T11:19:28.332Z,991.96
2023-02-25T11:20:28.319Z,991.93
2023-02-25T11:21:28.310Z,991.89
2023-02-25T11:22:28.305Z,991.92
2023-02-25T11:23:28.650Z,991.90
2023-02-25T11:24:28.283Z,991.83
2023-02-25T11:25:28.252Z,991.84
2023-02-25T11:26:28.244Z,991.79
2023-02-25T11:27:28.240Z,991.88
2023-02-25T11:28:28.227Z,991.87
2023-02-25T11:29:28.199Z,991.91
2023-02-25T11:30:28.247Z,991.91
2023-02-25T11:31:28.771Z,992.00
2023-02-25T11:32:28.230Z,992.01
2023-02-25T11:33:28.180Z,992.11
2023-02-25T11:34:28.129Z,992.19
2023-02-25T11:35:28.127Z,992.21
2023-02-25T11:36:28.107Z,992.37
2023-02-25T11:37:28.096Z,992.42
2023-02-25T11:38:28.097Z,992.39
2023-02-25T11:39:28.068Z,992.36
2023-02-25T11:40:28.077Z,992.47
2023-02-25T11:41:28.106Z,992.57
2023-02-25T11:42:28.030Z,992.57
2023-02-25T11:43:28.084Z,992.54
2023-02-25T11:44:28.132Z,992.56
2023-02-25T11:45:27.989Z,992.60
2023-02-25T11:46:28.131Z,992.50
2023-02-25T11:47:27.972Z,992.48
2023-02-25T11:48:27.962Z,992.50
2023-02-25T11:49:27.946Z,992.49
2023-02-25T11:50:27.914Z,992.46
2023-02-25T11:51:27.905Z,992.45
2023-02-25T11:52:28.650Z,992.49
2023-02-25T11:53:27.920Z,992.46
2023-02-25T11:54:27.946Z,992.39
2023-02-25T11:55:27.860Z,992.44
2023-02-25T11:56:27.858Z,992.40
2023-02-25T11:57:27.824Z,992.41
2023-02-25T11:58:27.825Z,992.39
2023-02-25T11:59:27.798Z,992.39
2023-02-25T12:00:27.789Z,992.31
2023-02-25T12:01:27.838Z,992.32
2023-02-25T12:02:27.870Z,992.31
2023-02-25T12:03:27.785Z,992.26
2023-02-25T12:04:27.851Z,992.26
2023-02-25T12:05:27.788Z,992.34
2023-02-25T12:06:27.711Z,992.32
2023-02-25T12:07:27.723Z,992.33
2023-02-25T12:08:27.694Z,992.26
2023-02-25T12:09:27.667Z,992.30
2023-02-25T12:10:27.651Z,992.19
2023-02-25T12:11:27.662Z,992.25
2023-02-25T12:12:27.642Z,992.29
2023-02-25T12:13:27.668Z,992.24
2023-02-25T12:14:27.594Z,992.30
2023-02-25T12:15:27.586Z,992.29
2023-02-25T12:16:27.770Z,992.34
2023-02-25T12:17:27.555Z,992.28
2023-02-25T12:18:27.567Z,992.26
2023-02-25T12:19:27.535Z,992.27
2023-02-25T12:20:27.532Z,992.18
2023-02-25T12:21:27.507Z,992.20
2023-02-25T12:22:27.482Z,992.23
2023-02-25T12:23:27.490Z,992.24
2023-02-25T12:24:27.465Z,992.25
2023-02-25T12:25:27.465Z,992.29
2023-02-25T12:26:27.438Z,992.27
2023-02-25T12:27:27.424Z,992.26
2023-02-25T12:28:27.440Z,992.21